Terminal Aerodrome Forecast
Issued by NWS

Current Version | Previous Version | Text Only | Print | Product List | Glossary Off
Versions: 1 2 3 4 5 6 7 8 9 10 11 12 13 14 15 16

000
FTUS41 KPBZ 180200 AAA
TAFHLG
TAF AMD
KHLG 180208Z 1802/1824 25010KT P6SM BKN040
     FM180700 26010G20KT P6SM VCSH BKN020
     FM181400 27010G20KT P6SM VCSH BKN020=

USA.gov is the U.S. government's official web portal to all federal, state and local government web resources and services.